Time;durP1;ratioP1;P1;durP2;ratioP2;P2;SDS_P1;SDS_P2;PMS_P1;PMS_P2;Temp;Humidity;BMP_temperature;BMP_pressure;BME280_temperature;BME280_humidity;BME280_pressure;Samples;Min_cycle;Max_cycle;Signal;HPM_P1;HPM_P2
2023/08/03 00:01:03;;;;;;;0.00;0.00;;;;;;;21.85;100.00;98897.53;10502649;28;20131;-76
2023/08/03 00:06:05;;;;;;;0.05;0.05;;;;;;;21.51;100.00;98899.25;10518502;28;20052;-76
2023/08/03 00:11:06;;;;;;;0.45;0.15;;;;;;;21.54;100.00;98896.47;10517756;28;20402;-75
2023/08/03 00:16:08;;;;;;;0.00;0.00;;;;;;;21.79;100.00;98897.81;10503637;28;20044;-75
2023/08/03 00:21:10;;;;;;;0.00;0.00;;;;;;;21.63;100.00;98891.72;10518219;28;20044;-76
2023/08/03 00:26:11;;;;;;;0.00;0.00;;;;;;;21.59;100.00;98887.53;10518732;28;20040;-77
2023/08/03 00:31:13;;;;;;;0.00;0.00;;;;;;;21.53;100.00;98886.91;10501822;28;20491;-77
2023/08/03 00:36:14;;;;;;;0.00;0.00;;;;;;;21.81;100.00;98890.75;10526070;28;20044;-76
2023/08/03 00:41:16;;;;;;;0.63;0.32;;;;;;;21.83;100.00;98899.38;10543352;28;20047;-76
2023/08/03 00:46:18;;;;;;;0.00;0.00;;;;;;;21.59;100.00;98892.78;10525550;28;20139;-76
2023/08/03 00:51:19;;;;;;;0.03;0.03;;;;;;;21.89;100.00;98900.84;10508467;28;20135;-76
2023/08/03 00:56:21;;;;;;;0.85;0.40;;;;;;;21.59;100.00;98908.50;10497128;28;20053;-76
2023/08/03 01:01:23;;;;;;;0.05;0.05;;;;;;;22.01;100.00;98907.16;10521975;28;20407;-76
2023/08/03 01:06:24;;;;;;;0.00;0.00;;;;;;;21.50;100.00;98928.16;10522667;28;20040;-76
2023/08/03 01:11:28;;;;;;;0.00;0.00;;;;;;;22.30;100.00;98928.38;10523684;28;20110;-76
2023/08/03 01:16:30;;;;;;;0.03;0.03;;;;;;;22.66;100.00;98929.94;10520122;28;20471;-76
2023/08/03 01:21:34;;;;;;;0.15;0.00;;;;;;;22.61;100.00;98942.44;10524202;28;20039;-75
2023/08/03 01:26:36;;;;;;;0.00;0.00;;;;;;;22.68;100.00;98951.69;10540631;28;20079;-77
2023/08/03 01:31:40;;;;;;;0.00;0.00;;;;;;;22.61;100.00;98958.19;10517949;28;20052;-77
2023/08/03 01:36:43;;;;;;;0.40;0.20;;;;;;;22.45;100.00;98969.53;10527340;28;20048;-77
2023/08/03 01:41:45;;;;;;;0.10;0.10;;;;;;;22.71;100.00;98964.63;10507436;28;20131;-77
2023/08/03 01:46:48;;;;;;;0.05;0.05;;;;;;;22.95;100.00;98972.91;10523741;28;20423;-76
2023/08/03 01:51:50;;;;;;;0.32;0.20;;;;;;;23.43;100.00;98978.09;10515176;28;20072;-76
2023/08/03 01:56:53;;;;;;;0.45;0.22;;;;;;;23.35;100.00;98996.09;10501038;28;20052;-77
2023/08/03 02:01:55;;;;;;;0.00;0.00;;;;;;;23.18;100.00;99001.47;10507389;28;20047;-77
2023/08/03 02:07:07;;;;;;;0.08;0.05;;;;;;;23.39;100.00;99010.75;10486490;28;20091;-78
2023/08/03 02:12:09;;;;;;;0.10;0.10;;;;;;;22.97;100.00;99017.50;10523550;28;20052;-77
2023/08/03 02:17:10;;;;;;;0.15;0.15;;;;;;;23.03;100.00;99027.66;10522606;28;20044;-76
2023/08/03 02:22:12;;;;;;;0.70;0.28;;;;;;;22.73;100.00;99032.78;10498018;28;20097;-75
2023/08/03 02:27:14;;;;;;;0.10;0.03;;;;;;;23.13;100.00;99034.06;10504873;28;20058;-76
2023/08/03 02:32:15;;;;;;;0.20;0.10;;;;;;;22.97;100.00;99055.09;10521500;28;20044;-76
2023/08/03 02:37:18;;;;;;;0.10;0.05;;;;;;;22.72;100.00;99045.09;10504467;28;20040;-76
2023/08/03 02:42:19;;;;;;;0.30;0.20;;;;;;;22.52;100.00;99055.81;10503773;28;20507;-76
2023/08/03 02:47:22;;;;;;;0.38;0.28;;;;;;;22.80;100.00;99061.28;10503933;28;20093;-78
2023/08/03 02:52:26;;;;;;;0.35;0.32;;;;;;;22.97;100.00;99059.50;10522586;28;20402;-77
2023/08/03 02:57:28;;;;;;;0.22;0.13;;;;;;;22.26;100.00;99058.00;10521050;28;20448;-77
2023/08/03 03:02:30;;;;;;;15.60;0.73;;;;;;;22.56;100.00;99073.06;10521245;28;20506;-79
2023/08/03 03:07:33;;;;;;;0.38;0.38;;;;;;;22.00;100.00;99083.78;10504891;28;20048;-76
2023/08/03 03:12:36;;;;;;;0.20;0.20;;;;;;;22.85;100.00;99091.66;10503012;28;20071;-76
2023/08/03 03:17:40;;;;;;;0.20;0.20;;;;;;;22.63;100.00;99092.81;10502184;28;20076;-76
2023/08/03 03:22:42;;;;;;;0.40;0.20;;;;;;;22.13;100.00;99099.72;10519170;28;20052;-76
2023/08/03 03:27:43;;;;;;;1.65;0.57;;;;;;;22.60;100.00;99106.94;10518904;28;20135;-76
2023/08/03 03:32:47;;;;;;;1.13;0.57;;;;;;;22.10;100.00;99111.22;10511413;28;20131;-76
2023/08/03 03:37:49;;;;;;;2.85;1.55;;;;;;;22.72;100.00;99118.59;10520754;28;20044;-77
2023/08/03 03:42:52;;;;;;;0.28;0.15;;;;;;;22.80;100.00;99121.66;10520866;28;20117;-77
2023/08/03 03:47:55;;;;;;;0.65;0.20;;;;;;;22.63;100.00;99125.19;10521399;28;20043;-77
2023/08/03 03:52:58;;;;;;;0.32;0.22;;;;;;;22.28;100.00;99134.84;10503847;28;20127;-77
2023/08/03 03:58:02;;;;;;;0.15;0.13;;;;;;;22.63;100.00;99124.31;10518930;28;20402;-76
2023/08/03 04:03:07;;;;;;;0.35;0.20;;;;;;;22.43;100.00;99117.47;10519344;28;20044;-77
2023/08/03 04:08:10;;;;;;;0.47;0.47;;;;;;;22.23;100.00;99108.84;10489244;28;20051;-80
2023/08/03 04:13:11;;;;;;;0.68;0.32;;;;;;;22.36;100.00;99101.19;10508578;28;20039;-77
2023/08/03 04:18:14;;;;;;;0.85;0.45;;;;;;;22.11;100.00;99107.69;10519362;28;20173;-77
2023/08/03 04:23:16;;;;;;;4.90;0.30;;;;;;;21.54;100.00;99124.41;10520761;28;20052;-80
2023/08/03 04:28:18;;;;;;;0.43;0.38;;;;;;;22.45;100.00;99110.38;10504325;28;20047;-79
2023/08/03 04:33:20;;;;;;;0.00;0.00;;;;;;;22.01;100.00;99111.69;10520513;28;20123;-81
2023/08/03 04:38:27;;;;;;;0.05;0.05;;;;;;;22.77;100.00;99110.47;10520845;28;20570;-79
2023/08/03 04:43:32;;;;;;;0.00;0.00;;;;;;;23.29;100.00;99106.78;10520117;28;20559;-78
2023/08/03 04:48:34;;;;;;;0.10;0.10;;;;;;;22.32;100.00;99113.63;10502667;28;20040;-77
2023/08/03 04:53:39;;;;;;;0.25;0.20;;;;;;;21.92;100.00;99118.25;10502231;28;20048;-76
2023/08/03 04:58:42;;;;;;;0.57;0.10;;;;;;;22.24;100.00;99141.16;10509791;28;20130;-76
2023/08/03 05:03:44;;;;;;;0.90;0.25;;;;;;;22.25;100.00;99155.97;10502829;28;20066;-76
2023/08/03 05:08:46;;;;;;;0.20;0.10;;;;;;;22.37;100.00;99164.97;10517324;28;20372;-76
2023/08/03 05:13:48;;;;;;;0.25;0.15;;;;;;;22.68;100.00;99185.28;10501154;28;20048;-75
2023/08/03 05:18:50;;;;;;;0.22;0.22;;;;;;;21.99;100.00;99194.84;10520805;28;20048;-75
2023/08/03 05:23:52;;;;;;;0.00;0.00;;;;;;;22.45;100.00;99208.28;10505773;28;20071;-77
2023/08/03 05:28:55;;;;;;;0.00;0.00;;;;;;;22.84;100.00;99215.97;10526164;28;20082;-78
2023/08/03 05:33:56;;;;;;;2.30;0.15;;;;;;;23.06;100.00;99208.69;10526015;28;20051;-78
2023/08/03 05:38:58;;;;;;;0.05;0.05;;;;;;;22.88;100.00;99209.66;10524648;28;20495;-77
2023/08/03 05:44:02;;;;;;;0.55;0.22;;;;;;;22.57;100.00;99216.50;10525265;28;20139;-76
2023/08/03 05:49:04;;;;;;;0.00;0.00;;;;;;;22.84;100.00;99226.50;10506705;28;20483;-77
2023/08/03 05:54:11;;;;;;;0.25;0.00;;;;;;;22.88;100.00;99244.63;10538163;28;20046;-76
2023/08/03 05:59:19;;;;;;;0.10;0.00;;;;;;;23.00;100.00;99251.03;10523546;28;20036;-76
2023/08/03 06:04:21;;;;;;;0.45;0.10;;;;;;;22.32;100.00;99267.53;10539101;28;20036;-76
2023/08/03 06:09:22;;;;;;;0.15;0.00;;;;;;;23.11;100.00;99269.72;10523384;28;20511;-75
2023/08/03 06:14:24;;;;;;;0.35;0.20;;;;;;;22.48;100.00;99273.75;10524471;28;20052;-79
2023/08/03 06:19:26;;;;;;;0.00;0.00;;;;;;;22.79;100.00;99277.47;10533164;28;20044;-77
2023/08/03 06:24:27;;;;;;;0.52;0.25;;;;;;;23.12;100.00;99284.53;10505118;28;20048;-79
2023/08/03 06:29:31;;;;;;;0.00;0.00;;;;;;;23.13;100.00;99285.38;10522004;28;20048;-77
2023/08/03 06:34:33;;;;;;;0.43;0.00;;;;;;;22.64;100.00;99294.00;10493542;28;20052;-77
2023/08/03 06:39:34;;;;;;;0.65;0.38;;;;;;;22.37;100.00;99318.03;10530821;28;20494;-77
2023/08/03 06:44:36;;;;;;;0.00;0.00;;;;;;;22.54;100.00;99325.09;10522437;28;20514;-75
2023/08/03 06:49:38;;;;;;;0.00;0.00;;;;;;;22.11;100.00;99333.22;10521158;28;20132;-77
2023/08/03 06:54:40;;;;;;;0.28;0.10;;;;;;;22.71;100.00;99332.13;10521341;28;20047;-77
2023/08/03 06:59:42;;;;;;;0.60;0.30;;;;;;;22.57;100.00;99352.97;10504590;28;20407;-77
2023/08/03 07:04:43;;;;;;;0.10;0.10;;;;;;;22.84;100.00;99355.13;10512438;28;20500;-77
2023/08/03 07:09:48;;;;;;;0.00;0.00;;;;;;;23.35;100.00;99358.69;10538890;28;20040;-77
2023/08/03 07:14:50;;;;;;;0.00;0.00;;;;;;;23.44;100.00;99371.38;10505029;28;20066;-77
2023/08/03 07:19:51;;;;;;;0.00;0.00;;;;;;;22.96;100.00;99386.88;10538729;28;20048;-77
2023/08/03 07:24:54;;;;;;;0.08;0.08;;;;;;;23.06;100.00;99389.06;10521242;28;20048;-76
2023/08/03 07:29:55;;;;;;;0.00;0.00;;;;;;;23.34;100.00;99399.06;10527805;28;20055;-76
2023/08/03 07:34:59;;;;;;;0.10;0.10;;;;;;;23.19;100.00;99390.16;10504308;28;20498;-76
2023/08/03 07:40:00;;;;;;;0.00;0.00;;;;;;;23.01;100.00;99402.44;10519688;28;20147;-76
2023/08/03 07:45:02;;;;;;;0.00;0.00;;;;;;;23.30;100.00;99408.00;10501922;28;20044;-75
2023/08/03 07:50:05;;;;;;;0.00;0.00;;;;;;;23.20;100.00;99419.91;10518600;28;20491;-76
2023/08/03 07:55:07;;;;;;;0.00;0.00;;;;;;;22.91;100.00;99433.56;10519285;28;20068;-76
2023/08/03 08:00:09;;;;;;;0.10;0.10;;;;;;;23.08;100.00;99440.59;10502615;28;20039;-76
2023/08/03 08:05:14;;;;;;;0.10;0.03;;;;;;;22.99;100.00;99451.53;10520307;28;20123;-76
2023/08/03 08:10:16;;;;;;;2.00;0.65;;;;;;;23.29;100.00;99453.59;10519750;28;20055;-76
2023/08/03 08:15:17;;;;;;;1.20;0.22;;;;;;;23.32;100.00;99474.50;10519580;28;20048;-77
2023/08/03 08:20:19;;;;;;;0.00;0.00;;;;;;;23.17;100.00;99470.81;10519494;28;20101;-76
2023/08/03 08:25:21;;;;;;;0.00;0.00;;;;;;;23.42;100.00;99475.72;10519702;28;20044;-76
2023/08/03 08:30:23;;;;;;;0.00;0.00;;;;;;;23.45;100.00;99485.25;10508843;28;20055;-76
2023/08/03 08:35:24;;;;;;;0.35;0.10;;;;;;;23.20;100.00;99496.09;10518658;28;20051;-77
2023/08/03 08:40:29;;;;;;;0.00;0.00;;;;;;;23.25;100.00;99504.63;10491157;28;20056;-77
2023/08/03 08:45:31;;;;;;;0.35;0.35;;;;;;;23.47;100.00;99503.56;10518162;28;20076;-77
2023/08/03 08:50:33;;;;;;;0.00;0.00;;;;;;;23.47;100.00;99499.13;10518065;28;20048;-77
2023/08/03 08:55:55;;;;;;;0.00;0.00;;;;;;;23.68;100.00;99512.97;10523745;28;20402;-77
2023/08/03 09:01:04;;;;;;;0.05;0.05;;;;;;;23.19;100.00;99516.28;10527747;28;20503;-77
2023/08/03 09:06:06;;;;;;;0.00;0.00;;;;;;;23.34;100.00;99517.31;10506979;28;20402;-77
2023/08/03 09:11:10;;;;;;;0.00;0.00;;;;;;;23.26;100.00;99535.22;10510545;28;20048;-77
2023/08/03 09:16:26;;;;;;;0.00;0.00;;;;;;;23.57;100.00;99536.31;10525809;28;20040;-78
2023/08/03 09:21:28;;;;;;;0.08;0.00;;;;;;;23.56;100.00;99547.78;10537683;28;20047;-78
2023/08/03 09:26:33;;;;;;;0.00;0.00;;;;;;;23.62;100.00;99547.47;10526382;28;20052;-78
2023/08/03 09:31:37;;;;;;;0.22;0.17;;;;;;;24.06;100.00;99560.16;10510085;28;20388;-77
2023/08/03 09:36:56;;;;;;;0.00;0.00;;;;;;;24.15;100.00;99571.16;10526273;28;20055;-78
2023/08/03 09:42:03;;;;;;;0.22;0.20;;;;;;;24.47;100.00;99579.97;10525842;28;20052;-77
2023/08/03 09:47:05;;;;;;;0.10;0.10;;;;;;;24.68;100.00;99587.69;10525461;28;20451;-76
2023/08/03 09:52:10;;;;;;;0.00;0.00;;;;;;;25.37;100.00;99601.47;10508249;28;20044;-76
2023/08/03 09:57:14;;;;;;;1.42;0.35;;;;;;;25.91;100.00;99616.84;10523947;28;20067;-75
2023/08/03 10:02:22;;;;;;;0.00;0.00;;;;;;;26.22;100.00;99620.34;10523457;28;20044;-76
2023/08/03 10:07:36;;;;;;;0.10;0.10;;;;;;;26.34;100.00;99628.47;10523009;28;20047;-76
2023/08/03 10:12:43;;;;;;;0.00;0.00;;;;;;;27.03;100.00;99636.59;10506182;28;20052;-75
2023/08/03 10:17:46;;;;;;;0.00;0.00;;;;;;;27.06;100.00;99652.28;10522725;28;20407;-76
2023/08/03 10:23:08;;;;;;;0.00;0.00;;;;;;;26.07;100.00;99666.09;10524305;28;20131;-75
2023/08/03 10:28:13;;;;;;;0.00;0.00;;;;;;;26.90;100.00;99674.38;10521888;28;20565;-76
2023/08/03 10:33:15;;;;;;;0.35;0.00;;;;;;;27.49;100.00;99676.00;10521358;28;20071;-76
2023/08/03 10:38:21;;;;;;;0.68;0.20;;;;;;;27.45;100.00;99679.78;10520851;28;20448;-75
2023/08/03 10:43:23;;;;;;;0.32;0.15;;;;;;;26.66;100.00;99699.63;10503901;28;20055;-76
2023/08/03 10:48:36;;;;;;;1.45;1.08;;;;;;;25.96;100.00;99711.56;10504473;28;20046;-75
2023/08/03 10:53:39;;;;;;;1.58;0.60;;;;;;;26.86;100.00;99717.75;10517956;28;20051;-75
2023/08/03 10:58:49;;;;;;;0.22;0.10;;;;;;;27.49;100.00;99722.75;10502513;28;20044;-75
2023/08/03 11:03:50;;;;;;;3.72;0.57;;;;;;;27.19;100.00;99727.22;10518303;28;20074;-76
2023/08/03 11:08:54;;;;;;;0.00;0.00;;;;;;;28.70;100.00;99734.28;10518139;28;20040;-76
2023/08/03 11:13:57;;;;;;;0.35;0.35;;;;;;;27.52;100.00;99728.69;10517768;28;20079;-76
2023/08/03 11:18:59;;;;;;;0.40;0.40;;;;;;;27.04;100.00;99749.31;10501111;28;20032;-76
2023/08/03 11:24:01;;;;;;;1.58;0.40;;;;;;;26.04;100.00;99771.81;10536856;28;20487;-75
2023/08/03 11:29:03;;;;;;;0.55;0.47;;;;;;;25.02;100.00;99789.56;10502918;28;20498;-78
2023/08/03 11:34:06;;;;;;;0.30;0.17;;;;;;;25.21;100.00;99804.41;10502657;28;20052;-77
2023/08/03 11:39:08;;;;;;;2.10;0.30;;;;;;;27.43;100.00;99791.91;10517227;28;20047;-77
2023/08/03 11:44:09;;;;;;;0.10;0.10;;;;;;;26.77;100.00;99802.88;10500927;28;20047;-76
2023/08/03 11:49:13;;;;;;;0.00;0.00;;;;;;;26.34;100.00;99808.00;10517342;28;20051;-77
2023/08/03 11:54:24;;;;;;;0.10;0.10;;;;;;;26.46;100.00;99823.16;10515984;28;20070;-77
2023/08/03 11:59:26;;;;;;;0.10;0.05;;;;;;;26.04;100.00;99843.06;10517295;28;20035;-77
2023/08/03 12:04:27;;;;;;;0.50;0.10;;;;;;;27.72;100.00;99850.94;10516487;28;20044;-76
2023/08/03 12:09:38;;;;;;;0.15;0.15;;;;;;;27.61;100.00;99856.91;10516043;28;20093;-76
2023/08/03 12:14:40;;;;;;;0.17;0.13;;;;;;;26.54;100.00;99868.47;10533187;28;20087;-76
2023/08/03 12:19:42;;;;;;;1.17;0.40;;;;;;;26.12;100.00;99891.03;10517390;28;20060;-76
2023/08/03 12:24:44;;;;;;;0.17;0.10;;;;;;;25.47;100.00;99910.31;10515928;28;20083;-76
2023/08/03 12:29:46;;;;;;;0.30;0.15;;;;;;;25.69;100.00;99920.56;10522804;28;20040;-76
2023/08/03 12:34:47;;;;;;;0.17;0.13;;;;;;;25.13;100.00;99941.03;10508440;28;20040;-76
2023/08/03 12:39:49;;;;;;;0.08;0.08;;;;;;;25.68;100.00;99947.03;10525685;28;20532;-76
2023/08/03 12:44:51;;;;;;;0.73;0.20;;;;;;;25.88;100.00;99951.25;10543318;28;20054;-76
2023/08/03 12:49:57;;;;;;;0.15;0.05;;;;;;;26.29;100.00;99949.03;10524675;28;20079;-76
2023/08/03 12:54:59;;;;;;;0.10;0.10;;;;;;;25.40;100.00;99959.03;10524883;28;20059;-76
2023/08/03 13:00:00;;;;;;;0.00;0.00;;;;;;;25.15;100.00;99971.63;10508980;28;20450;-76
2023/08/03 13:05:02;;;;;;;0.00;0.00;;;;;;;25.57;100.00;99985.38;10522360;28;20117;-75
2023/08/03 13:10:05;;;;;;;0.10;0.10;;;;;;;24.69;100.00;100011.59;10522906;28;20029;-78
2023/08/03 13:15:07;;;;;;;0.70;0.38;;;;;;;24.65;100.00;100035.47;10526200;28;20051;-78
2023/08/03 13:20:09;;;;;;;0.08;0.00;;;;;;;24.52;100.00;100037.84;10524859;28;20115;-76
2023/08/03 13:25:11;;;;;;;0.10;0.10;;;;;;;25.11;100.00;100043.00;10523297;28;20090;-76
2023/08/03 13:30:14;;;;;;;0.00;0.00;;;;;;;26.50;100.00;100045.66;10519548;28;20048;-77
2023/08/03 13:35:16;;;;;;;0.00;0.00;;;;;;;25.46;100.00;100064.16;10499240;28;20044;-76
2023/08/03 13:40:18;;;;;;;0.00;0.00;;;;;;;25.03;100.00;100075.84;10522837;28;20040;-76
2023/08/03 13:45:19;;;;;;;0.20;0.10;;;;;;;25.57;100.00;100082.97;10536363;28;20102;-76
2023/08/03 13:50:21;;;;;;;0.00;0.00;;;;;;;26.08;100.00;100093.59;10507652;28;20082;-75
2023/08/03 13:55:23;;;;;;;0.00;0.00;;;;;;;26.50;100.00;100091.41;10511437;28;20056;-76
2023/08/03 14:00:26;;;;;;;0.00;0.00;;;;;;;25.22;100.00;100118.94;10520868;28;20044;-75
2023/08/03 14:05:28;;;;;;;0.25;0.10;;;;;;;24.86;100.00;100133.75;10521454;28;20084;-76
2023/08/03 14:10:34;;;;;;;0.00;0.00;;;;;;;23.47;100.00;100181.69;10521402;28;20047;-77
2023/08/03 14:15:36;;;;;;;0.00;0.00;;;;;;;23.41;100.00;100193.31;10512018;28;20478;-78
2023/08/03 14:20:38;;;;;;;0.00;0.00;;;;;;;22.63;100.00;100211.03;10513315;28;20060;-77
2023/08/03 14:25:43;;;;;;;0.00;0.00;;;;;;;22.88;100.00;100220.66;10520370;28;20115;-77
2023/08/03 14:30:44;;;;;;;0.13;0.00;;;;;;;23.33;100.00;100222.53;10527189;28;20113;-77
2023/08/03 14:35:46;;;;;;;0.10;0.10;;;;;;;23.39;100.00;100232.78;10520492;28;20479;-76
2023/08/03 14:40:48;;;;;;;2.20;0.30;;;;;;;23.97;100.00;100241.13;10503749;28;20143;-76
2023/08/03 14:45:51;;;;;;;0.00;0.00;;;;;;;23.95;100.00;100248.22;10505871;28;20483;-76
2023/08/03 14:50:53;;;;;;;0.25;0.03;;;;;;;23.83;100.00;100252.16;10511097;28;20047;-77
2023/08/03 14:55:58;;;;;;;0.05;0.05;;;;;;;23.64;100.00;100266.03;10525385;28;20048;-77
2023/08/03 15:01:07;;;;;;;0.03;0.00;;;;;;;23.40;100.00;100273.06;10514823;28;20067;-76
2023/08/03 15:06:17;;;;;;;0.10;0.10;;;;;;;23.28;100.00;100279.63;10519393;28;20557;-75
2023/08/03 15:11:20;;;;;;;1.52;0.43;;;;;;;23.97;100.00;100291.94;10501632;28;20495;-77
2023/08/03 15:16:22;;;;;;;0.05;0.05;;;;;;;24.48;100.00;100295.16;10509671;28;20487;-75
2023/08/03 15:21:27;;;;;;;0.17;0.13;;;;;;;24.48;100.00;100312.72;10502978;28;20043;-76
2023/08/03 15:26:30;;;;;;;0.00;0.00;;;;;;;24.25;100.00;100325.03;10519239;28;20475;-76
2023/08/03 15:31:36;;;;;;;0.00;0.00;;;;;;;24.03;100.00;100325.06;10518101;28;20048;-77
2023/08/03 15:36:45;;;;;;;0.00;0.00;;;;;;;23.53;100.00;100344.44;10529343;28;20053;-76
2023/08/03 15:41:53;;;;;;;0.10;0.10;;;;;;;23.97;100.00;100355.09;10516931;28;20052;-76
2023/08/03 15:46:58;;;;;;;0.20;0.10;;;;;;;23.83;100.00;100370.50;10518483;28;20136;-75
2023/08/03 15:52:20;;;;;;;1.00;0.25;;;;;;;23.68;100.00;100378.06;10512303;28;20051;-76
2023/08/03 15:57:32;;;;;;;0.38;0.08;;;;;;;23.19;100.00;100385.09;10503108;28;20060;-75
2023/08/03 16:02:34;;;;;;;0.00;0.00;;;;;;;23.87;100.00;100396.66;10512831;28;20059;-76
2023/08/03 16:07:36;;;;;;;0.38;0.38;;;;;;;23.56;100.00;100391.69;10501181;28;20044;-75
2023/08/03 16:12:38;;;;;;;0.22;0.20;;;;;;;22.95;100.00;100411.28;10518501;28;20044;-76
2023/08/03 16:17:40;;;;;;;1.25;0.40;;;;;;;23.27;100.00;100406.72;10518865;28;20047;-75
2023/08/03 16:22:42;;;;;;;0.00;0.00;;;;;;;23.30;100.00;100411.84;10507914;28;20056;-75
2023/08/03 16:27:44;;;;;;;0.00;0.00;;;;;;;23.43;100.00;100422.78;10494026;28;20510;-76
2023/08/03 16:32:46;;;;;;;0.10;0.10;;;;;;;23.47;100.00;100428.81;10499871;28;20399;-75
2023/08/03 16:37:51;;;;;;;0.30;0.20;;;;;;;23.69;100.00;100434.13;10501171;28;20044;-75
2023/08/03 16:42:52;;;;;;;0.35;0.28;;;;;;;23.58;100.00;100437.16;10509580;28;20040;-75
2023/08/03 16:47:54;;;;;;;2.10;1.15;;;;;;;23.73;100.00;100446.28;10517071;28;20507;-76
2023/08/03 16:52:55;;;;;;;0.20;0.10;;;;;;;23.96;100.00;100441.97;10511140;28;20075;-76
2023/08/03 16:57:57;;;;;;;0.00;0.00;;;;;;;23.62;100.00;100459.81;10501570;28;20046;-76
2023/08/03 17:02:59;;;;;;;0.00;0.00;;;;;;;24.15;100.00;100460.56;10516589;28;20135;-75
2023/08/03 17:08:01;;;;;;;0.10;0.10;;;;;;;24.39;100.00;100471.91;10516753;28;20406;-76
2023/08/03 17:13:02;;;;;;;1.95;0.73;;;;;;;24.47;100.00;100475.09;10494511;28;20055;-75
2023/08/03 17:18:04;;;;;;;0.50;0.50;;;;;;;24.47;100.00;100484.75;10517558;28;20052;-75
2023/08/03 17:23:09;;;;;;;0.63;0.63;;;;;;;24.52;100.00;100504.75;10527444;28;20036;-75
2023/08/03 17:28:11;;;;;;;0.30;0.10;;;;;;;24.83;100.00;100514.09;10521284;28;20556;-75
2023/08/03 17:33:12;;;;;;;0.20;0.20;;;;;;;24.44;100.00;100519.13;10521200;28;20044;-75
2023/08/03 17:38:14;;;;;;;0.40;0.10;;;;;;;24.04;100.00;100534.63;10506483;28;20048;-76
2023/08/03 17:43:16;;;;;;;0.03;0.03;;;;;;;24.10;100.00;100544.06;10520672;28;20048;-75
2023/08/03 17:48:17;;;;;;;0.10;0.10;;;;;;;24.05;100.00;100557.41;10519356;28;20055;-76
2023/08/03 17:53:21;;;;;;;0.40;0.20;;;;;;;23.98;100.00;100574.34;10522293;28;20161;-76
2023/08/03 17:58:23;;;;;;;0.85;0.70;;;;;;;23.99;100.00;100590.06;10521960;28;20075;-75
2023/08/03 18:03:24;;;;;;;0.30;0.10;;;;;;;24.00;100.00;100594.41;10501383;28;20422;-75
2023/08/03 18:08:26;;;;;;;0.08;0.03;;;;;;;23.94;100.00;100607.75;10509167;28;20135;-75
2023/08/03 18:13:31;;;;;;;0.47;0.47;;;;;;;23.93;100.00;100606.06;10505155;28;20044;-76
2023/08/03 18:18:35;;;;;;;0.00;0.00;;;;;;;23.49;100.00;100611.00;10500451;28;20051;-75
2023/08/03 18:23:36;;;;;;;0.10;0.10;;;;;;;23.77;100.00;100617.06;10514032;28;20054;-75
2023/08/03 18:28:38;;;;;;;0.10;0.10;;;;;;;23.35;100.00;100630.69;10529536;28;20056;-76
2023/08/03 18:33:41;;;;;;;0.15;0.10;;;;;;;23.72;100.00;100633.91;10512900;28;20071;-74
2023/08/03 18:38:44;;;;;;;0.85;0.50;;;;;;;23.45;100.00;100633.91;10508816;28;20483;-75
2023/08/03 18:43:48;;;;;;;0.10;0.10;;;;;;;22.97;100.00;100653.75;10495666;28;20616;-75
2023/08/03 18:48:50;;;;;;;0.00;0.00;;;;;;;23.38;100.00;100651.63;10517815;28;20398;-75
2023/08/03 18:53:51;;;;;;;1.17;0.50;;;;;;;23.70;100.00;100665.53;10531338;28;20052;-75
2023/08/03 18:58:55;;;;;;;0.00;0.00;;;;;;;23.98;100.00;100675.16;10520678;28;20043;-75
2023/08/03 19:03:58;;;;;;;0.15;0.08;;;;;;;23.77;100.00;100680.19;10511299;28;20131;-76
2023/08/03 19:09:00;;;;;;;0.30;0.10;;;;;;;23.33;100.00;100690.38;10501630;28;20051;-76
2023/08/03 19:14:02;;;;;;;4.30;1.55;;;;;;;23.28;100.00;100692.25;10502695;28;20055;-75
2023/08/03 19:19:07;;;;;;;0.00;0.00;;;;;;;23.54;100.00;100698.47;10519794;28;20112;-75
2023/08/03 19:24:09;;;;;;;0.25;0.25;;;;;;;23.29;100.00;100709.75;10502210;28;20051;-75
2023/08/03 19:29:13;;;;;;;0.00;0.00;;;;;;;22.96;100.00;100715.06;10531053;28;20036;-76
2023/08/03 19:34:18;;;;;;;0.60;0.30;;;;;;;23.34;100.00;100723.63;10498953;28;20548;-75
2023/08/03 19:39:21;;;;;;;0.10;0.10;;;;;;;23.24;100.00;100727.44;10539464;28;20040;-75
2023/08/03 19:44:23;;;;;;;0.52;0.32;;;;;;;23.10;100.00;100731.31;10517948;28;20126;-75
2023/08/03 19:49:25;;;;;;;0.05;0.03;;;;;;;23.28;100.00;100729.94;10517001;28;20052;-75
2023/08/03 19:54:29;;;;;;;0.40;0.17;;;;;;;23.09;100.00;100755.84;10522988;28;20040;-76
2023/08/03 19:59:34;;;;;;;0.15;0.15;;;;;;;23.54;100.00;100753.69;10532025;28;20399;-75
2023/08/03 20:04:36;;;;;;;0.00;0.00;;;;;;;23.36;100.00;100758.59;10531605;28;20498;-76
2023/08/03 20:09:40;;;;;;;0.10;0.00;;;;;;;23.30;100.00;100769.28;10506986;28;20044;-76
2023/08/03 20:14:44;;;;;;;0.20;0.13;;;;;;;23.02;100.00;100775.31;10500111;28;20048;-75
2023/08/03 20:19:48;;;;;;;0.20;0.13;;;;;;;23.25;100.00;100781.72;10508865;28;20054;-75
2023/08/03 20:24:49;;;;;;;1.13;0.40;;;;;;;23.47;100.00;100781.94;10535015;28;20040;-75
2023/08/03 20:29:51;;;;;;;0.45;0.45;;;;;;;23.27;100.00;100798.31;10515046;28;20043;-76
2023/08/03 20:35:02;;;;;;;0.10;0.10;;;;;;;23.49;100.00;100800.31;10512697;28;20516;-75
2023/08/03 20:40:07;;;;;;;0.00;0.00;;;;;;;23.29;100.00;100804.38;10516440;28;20056;-75
2023/08/03 20:45:09;;;;;;;0.08;0.08;;;;;;;23.30;100.00;100816.59;10498302;28;20044;-75
2023/08/03 20:50:33;;;;;;;0.05;0.05;;;;;;;22.80;100.00;100823.19;10509049;28;20085;-76
2023/08/03 20:55:38;;;;;;;1.33;1.00;;;;;;;22.89;100.00;100826.47;10524958;28;20044;-76
2023/08/03 21:00:39;;;;;;;0.20;0.20;;;;;;;22.80;100.00;100827.56;10507376;28;20119;-76
2023/08/03 21:05:42;;;;;;;0.20;0.13;;;;;;;22.96;100.00;100834.13;10524240;28;20040;-75
2023/08/03 21:10:47;;;;;;;0.47;0.20;;;;;;;23.19;100.00;100839.72;10524206;28;20089;-75
2023/08/03 21:15:52;;;;;;;2.85;0.47;;;;;;;22.81;100.00;100845.94;10509113;28;20046;-76
2023/08/03 21:20:53;;;;;;;0.30;0.20;;;;;;;22.60;100.00;100841.25;10524985;28;20071;-75
2023/08/03 21:25:55;;;;;;;0.35;0.35;;;;;;;23.19;100.00;100839.72;10518114;28;20055;-75
2023/08/03 21:30:57;;;;;;;0.13;0.10;;;;;;;23.31;100.00;100844.63;10520298;28;20051;-75
2023/08/03 21:35:59;;;;;;;0.28;0.17;;;;;;;23.42;100.00;100853.06;10536341;28;20140;-75
2023/08/03 21:41:00;;;;;;;0.00;0.00;;;;;;;22.93;100.00;100859.63;10509556;28;20032;-75
2023/08/03 21:46:02;;;;;;;0.10;0.10;;;;;;;23.25;100.00;100866.66;10538653;28;20048;-76
2023/08/03 21:51:04;;;;;;;0.00;0.00;;;;;;;23.07;100.00;100868.00;10524172;28;20510;-75
2023/08/03 21:56:13;;;;;;;0.00;0.00;;;;;;;23.32;100.00;100872.63;10542490;28;20526;-76
2023/08/03 22:01:14;;;;;;;0.00;0.00;;;;;;;23.26;100.00;100878.06;10498967;28;20052;-75
2023/08/03 22:06:16;;;;;;;0.30;0.10;;;;;;;23.16;100.00;100876.53;10506693;28;20461;-75
2023/08/03 22:11:19;;;;;;;0.00;0.00;;;;;;;22.89;100.00;100879.88;10523882;28;20487;-75
2023/08/03 22:16:24;;;;;;;0.00;0.00;;;;;;;22.95;100.00;100884.09;10518383;28;20056;-76
2023/08/03 22:21:26;;;;;;;0.10;0.08;;;;;;;22.96;100.00;100885.84;10523691;28;20131;-75
2023/08/03 22:26:27;;;;;;;0.00;0.00;;;;;;;23.23;100.00;100893.91;10523097;28;20044;-76
2023/08/03 22:31:29;;;;;;;0.00;0.00;;;;;;;22.85;100.00;100893.13;10522605;28;20051;-75
2023/08/03 22:36:31;;;;;;;0.10;0.00;;;;;;;22.70;100.00;100903.09;10506230;28;20046;-76
2023/08/03 22:41:33;;;;;;;0.00;0.00;;;;;;;23.07;100.00;100898.69;10522365;28;20047;-76
2023/08/03 22:46:34;;;;;;;0.00;0.00;;;;;;;22.62;100.00;100905.06;10521977;28;20047;-76
2023/08/03 22:51:39;;;;;;;0.17;0.13;;;;;;;22.42;100.00;100905.53;10522132;28;20052;-75
2023/08/03 22:56:41;;;;;;;0.10;0.10;;;;;;;22.76;100.00;100905.56;10524727;28;20036;-75
2023/08/03 23:01:42;;;;;;;0.82;0.25;;;;;;;21.98;100.00;100916.09;10505478;28;20131;-76
2023/08/03 23:06:46;;;;;;;0.00;0.00;;;;;;;21.51;100.00;100914.38;10510673;28;20126;-75